Time;durP1;ratioP1;P1;durP2;ratioP2;P2;SDS_P1;SDS_P2;PMS_P1;PMS_P2;Temp;Humidity;BMP_temperature;BMP_pressure;BME280_temperature;BME280_humidity;BME280_pressure;Samples;Min_cycle;Max_cycle;Signal;HPM_P1;HPM_P2
2022/08/13 00:01:53;;;;;;;6.27;4.60;;;;;;;;;;5053924;28;20952;-70
2022/08/13 00:04:21;;;;;;;6.47;4.20;;;;;;;;;;5053526;28;20500;-69
2022/08/13 00:07:08;;;;;;;7.03;3.80;;;;;;;;;;5053299;28;20560;-69
2022/08/13 00:09:40;;;;;;;6.00;3.70;;;;;;;;;;5054154;28;20489;-69
2022/08/13 00:14:53;;;;;;;6.10;3.40;;;;;;;;;;5054149;28;20724;-69
2022/08/13 00:17:21;;;;;;;5.33;3.30;;;;;;;;;;5052976;28;20490;-69
2022/08/13 00:19:49;;;;;;;5.33;3.33;;;;;;;;;;5053471;28;20462;-69
2022/08/13 00:22:23;;;;;;;6.47;4.37;;;;;;;;;;5054663;28;20735;-70
2022/08/13 00:24:55;;;;;;;9.27;4.20;;;;;;;;;;5054083;28;20457;-69
2022/08/13 00:27:22;;;;;;;5.00;3.87;;;;;;;;;;5053551;28;20827;-70
2022/08/13 00:29:50;;;;;;;6.30;4.30;;;;;;;;;;5053831;28;20788;-69
2022/08/13 00:32:27;;;;;;;5.53;4.30;;;;;;;;;;5053897;28;20854;-70
2022/08/13 00:34:54;;;;;;;4.93;3.30;;;;;;;;;;5054540;28;20545;-69
2022/08/13 00:37:22;;;;;;;5.00;3.73;;;;;;;;;;5053455;28;20738;-69
2022/08/13 00:39:49;;;;;;;5.10;3.90;;;;;;;;;;5054162;28;20737;-69
2022/08/13 00:42:21;;;;;;;5.67;3.30;;;;;;;;;;5053842;28;20469;-70
2022/08/13 00:44:48;;;;;;;5.83;2.90;;;;;;;;;;5053682;28;20458;-70
2022/08/13 00:50:00;;;;;;;5.73;2.80;;;;;;;;;;5052855;28;20951;-69
2022/08/13 00:52:30;;;;;;;5.00;2.80;;;;;;;;;;5042088;28;20485;-69
2022/08/13 00:54:59;;;;;;;7.03;5.73;;;;;;;;;;5035366;28;20532;-69
2022/08/13 00:57:28;;;;;;;4.83;3.03;;;;;;;;;;5034072;28;20461;-69
2022/08/13 00:59:55;;;;;;;4.40;3.10;;;;;;;;;;5033166;28;20473;-69
2022/08/13 01:02:23;;;;;;;5.43;3.20;;;;;;;;;;5033783;28;20521;-69
2022/08/13 01:04:50;;;;;;;5.53;3.77;;;;;;;;;;5033595;28;20447;-69
2022/08/13 01:07:18;;;;;;;3.90;2.87;;;;;;;;;;5034136;28;20466;-69
2022/08/13 01:09:45;;;;;;;5.03;3.60;;;;;;;;;;5033358;28;20486;-69
2022/08/13 01:12:13;;;;;;;6.80;3.07;;;;;;;;;;5032717;28;20460;-69
2022/08/13 01:14:42;;;;;;;6.47;3.27;;;;;;;;;;5033385;28;20466;-70
2022/08/13 01:17:12;;;;;;;6.80;3.07;;;;;;;;;;5032424;28;20466;-69
2022/08/13 01:19:42;;;;;;;3.80;2.73;;;;;;;;;;5032853;28;20450;-69
2022/08/13 01:22:10;;;;;;;4.20;3.37;;;;;;;;;;5033393;28;20454;-69
2022/08/13 01:24:38;;;;;;;5.60;3.17;;;;;;;;;;5033148;28;20460;-69
2022/08/13 01:27:10;;;;;;;7.00;3.20;;;;;;;;;;5033349;28;20702;-69
2022/08/13 01:29:37;;;;;;;6.60;3.00;;;;;;;;;;5032797;28;20486;-70
2022/08/13 01:32:06;;;;;;;6.30;3.47;;;;;;;;;;5033811;28;20583;-69
2022/08/13 01:34:33;;;;;;;5.27;3.33;;;;;;;;;;5033214;28;20450;-69
2022/08/13 01:37:01;;;;;;;4.77;3.00;;;;;;;;;;5032920;28;20532;-69
2022/08/13 01:39:29;;;;;;;5.20;2.87;;;;;;;;;;5032594;28;20469;-69
2022/08/13 01:41:57;;;;;;;5.20;2.87;;;;;;;;;;5032955;28;20446;-69
2022/08/13 01:44:25;;;;;;;6.93;3.00;;;;;;;;;;5033522;28;20461;-69
2022/08/13 01:52:34;;;;;;;4.20;3.03;;;;;;;;;;5033032;28;20885;-69
2022/08/13 01:55:02;;;;;;;4.03;2.93;;;;;;;;;;5032559;28;20446;-69
2022/08/13 01:57:30;;;;;;;5.10;3.30;;;;;;;;;;5033726;28;20766;-69
2022/08/13 01:59:57;;;;;;;6.27;2.90;;;;;;;;;;5032524;28;20922;-69
2022/08/13 02:02:27;;;;;;;6.40;3.87;;;;;;;;;;5032085;28;20501;-69
2022/08/13 02:04:55;;;;;;;7.83;3.70;;;;;;;;;;5033176;28;20455;-69
2022/08/13 02:07:22;;;;;;;4.60;3.23;;;;;;;;;;5032506;28;20450;-69
2022/08/13 02:09:49;;;;;;;4.70;3.20;;;;;;;;;;5032180;28;20816;-69
2022/08/13 02:12:20;;;;;;;4.63;3.40;;;;;;;;;;5033317;28;20868;-69
2022/08/13 02:14:47;;;;;;;9.30;3.60;;;;;;;;;;5032722;28;20461;-69
2022/08/13 02:17:27;;;;;;;5.67;3.37;;;;;;;;;;5031893;28;20879;-69
2022/08/13 02:19:55;;;;;;;5.33;3.20;;;;;;;;;;5032912;28;20545;-70
2022/08/13 02:22:22;;;;;;;8.73;3.80;;;;;;;;;;5033697;28;20462;-69
2022/08/13 02:24:53;;;;;;;4.10;2.83;;;;;;;;;;5032846;28;20442;-69
2022/08/13 02:27:22;;;;;;;7.77;3.57;;;;;;;;;;5033480;28;20933;-69
2022/08/13 02:29:49;;;;;;;5.00;3.17;;;;;;;;;;5032441;28;20521;-69
2022/08/13 02:32:17;;;;;;;3.67;2.60;;;;;;;;;;5033404;28;20504;-69
2022/08/13 02:34:45;;;;;;;5.83;2.50;;;;;;;;;;5032838;28;20787;-69
2022/08/13 02:37:15;;;;;;;4.70;3.07;;;;;;;;;;5032719;28;20459;-69
2022/08/13 02:39:43;;;;;;;8.70;3.50;;;;;;;;;;5032058;28;20540;-69
2022/08/13 02:42:11;;;;;;;5.87;3.10;;;;;;;;;;5036564;28;20523;-70
2022/08/13 02:44:40;;;;;;;5.40;2.97;;;;;;;;;;5055899;28;20461;-69
2022/08/13 02:47:07;;;;;;;5.57;3.00;;;;;;;;;;5051039;28;20913;-69
2022/08/13 02:49:36;;;;;;;4.30;2.70;;;;;;;;;;5050537;28;20482;-70
2022/08/13 02:52:05;;;;;;;6.53;2.90;;;;;;;;;;5057190;28;20716;-69
2022/08/13 02:54:33;;;;;;;6.73;3.00;;;;;;;;;;5041212;28;20473;-70
2022/08/13 02:57:00;;;;;;;2.97;2.30;;;;;;;;;;5036808;28;20468;-69
2022/08/13 02:59:27;;;;;;;5.37;3.20;;;;;;;;;;5035782;28;20450;-69
2022/08/13 03:01:55;;;;;;;5.57;2.77;;;;;;;;;;5036488;28;20465;-69
2022/08/13 03:04:23;;;;;;;6.37;3.30;;;;;;;;;;5036168;28;20500;-69
2022/08/13 03:06:51;;;;;;;6.33;4.37;;;;;;;;;;5036758;28;20454;-70
2022/08/13 03:09:20;;;;;;;5.67;3.53;;;;;;;;;;5035579;28;20486;-69
2022/08/13 03:11:48;;;;;;;5.00;2.90;;;;;;;;;;5036711;28;20473;-69
2022/08/13 03:14:16;;;;;;;5.33;3.30;;;;;;;;;;5036415;28;20474;-69
2022/08/13 03:16:43;;;;;;;4.43;3.33;;;;;;;;;;5036152;28;20466;-69
2022/08/13 03:19:11;;;;;;;4.10;2.90;;;;;;;;;;5035527;28;20461;-69
2022/08/13 03:21:41;;;;;;;3.97;2.47;;;;;;;;;;5035830;28;20466;-69
2022/08/13 03:24:10;;;;;;;6.80;2.93;;;;;;;;;;5036369;28;20450;-69
2022/08/13 03:26:38;;;;;;;3.77;2.70;;;;;;;;;;5035959;28;20516;-69
2022/08/13 03:29:05;;;;;;;4.30;2.90;;;;;;;;;;5035636;28;20481;-70
2022/08/13 03:31:34;;;;;;;6.63;3.47;;;;;;;;;;5036663;28;20461;-69
2022/08/13 03:34:01;;;;;;;4.37;2.80;;;;;;;;;;5036201;28;20477;-69
2022/08/13 03:36:29;;;;;;;3.47;2.50;;;;;;;;;;5036155;28;20454;-69
2022/08/13 03:38:57;;;;;;;4.40;2.50;;;;;;;;;;5035568;28;20453;-69
2022/08/13 03:41:24;;;;;;;3.97;2.30;;;;;;;;;;5035731;28;20615;-69
2022/08/13 03:43:53;;;;;;;5.90;2.30;;;;;;;;;;5036023;28;20446;-69
2022/08/13 03:46:21;;;;;;;6.33;3.37;;;;;;;;;;5036142;28;20883;-70
2022/08/13 03:48:49;;;;;;;4.00;2.63;;;;;;;;;;5035603;28;20579;-70
2022/08/13 03:51:16;;;;;;;3.40;2.50;;;;;;;;;;5035821;28;20759;-69
2022/08/13 03:53:45;;;;;;;4.37;3.17;;;;;;;;;;5053230;28;20500;-70
2022/08/13 03:56:15;;;;;;;6.60;3.10;;;;;;;;;;5055925;28;20945;-69
2022/08/13 03:58:44;;;;;;;4.80;2.93;;;;;;;;;;5056046;28;20865;-69
2022/08/13 04:01:11;;;;;;;4.47;3.03;;;;;;;;;;5055044;28;20465;-69
2022/08/13 04:03:41;;;;;;;6.73;2.80;;;;;;;;;;5055612;28;20457;-69
2022/08/13 04:06:12;;;;;;;4.13;3.10;;;;;;;;;;5054342;28;20702;-69
2022/08/13 04:08:39;;;;;;;5.80;3.20;;;;;;;;;;5055002;28;20449;-69
2022/08/13 04:11:11;;;;;;;8.13;2.90;;;;;;;;;;5054688;28;20449;-69
2022/08/13 04:13:38;;;;;;;4.07;3.10;;;;;;;;;;5054846;28;20461;-69
2022/08/13 04:16:06;;;;;;;9.63;3.00;;;;;;;;;;5053431;28;20541;-70
2022/08/13 04:18:35;;;;;;;5.77;3.20;;;;;;;;;;5050626;28;20556;-69
2022/08/13 04:21:03;;;;;;;5.43;2.97;;;;;;;;;;5053898;28;20522;-69
2022/08/13 04:23:33;;;;;;;3.13;2.60;;;;;;;;;;5054661;28;20446;-69
2022/08/13 04:26:00;;;;;;;3.10;2.43;;;;;;;;;;5054683;28;20603;-69
2022/08/13 04:28:28;;;;;;;5.90;3.30;;;;;;;;;;5054403;28;20433;-68
2022/08/13 04:30:55;;;;;;;6.23;3.33;;;;;;;;;;5054509;28;20737;-69
2022/08/13 04:33:22;;;;;;;5.80;3.70;;;;;;;;;;5054758;28;20460;-69
2022/08/13 04:35:49;;;;;;;4.70;2.63;;;;;;;;;;5054630;28;20464;-69
2022/08/13 04:38:19;;;;;;;5.83;3.00;;;;;;;;;;5055394;28;20540;-69
2022/08/13 04:40:47;;;;;;;5.93;3.17;;;;;;;;;;5055527;28;20545;-69
2022/08/13 04:43:14;;;;;;;5.63;3.10;;;;;;;;;;5054363;28;20645;-68
2022/08/13 04:45:43;;;;;;;4.70;3.57;;;;;;;;;;5054591;28;20453;-70
2022/08/13 04:48:12;;;;;;;5.63;3.13;;;;;;;;;;5053859;28;20504;-69
2022/08/13 04:50:44;;;;;;;5.50;3.43;;;;;;;;;;5054301;28;20559;-70
2022/08/13 04:53:11;;;;;;;6.03;2.40;;;;;;;;;;5054113;28;20452;-70
2022/08/13 04:55:39;;;;;;;6.77;4.20;;;;;;;;;;5054474;28;20723;-69
2022/08/13 04:58:08;;;;;;;6.90;2.90;;;;;;;;;;5053861;28;20453;-69
2022/08/13 05:00:36;;;;;;;4.93;3.03;;;;;;;;;;5053088;28;20449;-69
2022/08/13 05:03:10;;;;;;;4.10;3.00;;;;;;;;;;5053596;28;20524;-69
2022/08/13 05:05:37;;;;;;;3.67;2.87;;;;;;;;;;5053802;28;20515;-69
2022/08/13 05:08:05;;;;;;;7.90;3.03;;;;;;;;;;5052545;28;20457;-69
2022/08/13 05:10:42;;;;;;;4.90;3.00;;;;;;;;;;5052437;28;20496;-70
2022/08/13 05:13:20;;;;;;;7.80;4.07;;;;;;;;;;5053835;28;20441;-70
2022/08/13 05:15:47;;;;;;;6.53;2.77;;;;;;;;;;5053133;28;20457;-70
2022/08/13 05:18:15;;;;;;;4.53;3.40;;;;;;;;;;5052435;28;20473;-68
2022/08/13 05:20:42;;;;;;;6.20;3.00;;;;;;;;;;5052571;28;20469;-71
2022/08/13 05:23:12;;;;;;;4.43;2.93;;;;;;;;;;5051538;28;20476;-70
2022/08/13 05:25:39;;;;;;;6.67;3.10;;;;;;;;;;5052382;28;20904;-71
2022/08/13 05:28:07;;;;;;;5.30;3.20;;;;;;;;;;5052095;28;20450;-70
2022/08/13 05:30:38;;;;;;;4.20;2.30;;;;;;;;;;5051346;28;20532;-70
2022/08/13 05:33:13;;;;;;;6.83;2.70;;;;;;;;;;5051101;28;20496;-70
2022/08/13 05:35:41;;;;;;;5.50;2.80;;;;;;;;;;5052712;28;20496;-71
2022/08/13 05:38:09;;;;;;;4.40;3.20;;;;;;;;;;5052384;28;20464;-70
2022/08/13 05:40:36;;;;;;;4.40;2.90;;;;;;;;;;5051205;28;20560;-70
2022/08/13 05:43:03;;;;;;;5.37;2.90;;;;;;;;;;5052388;28;20488;-70
2022/08/13 05:45:30;;;;;;;4.10;3.17;;;;;;;;;;5052681;28;20504;-70
2022/08/13 05:47:57;;;;;;;4.37;2.53;;;;;;;;;;5052249;28;20747;-70
2022/08/13 05:50:25;;;;;;;3.90;2.70;;;;;;;;;;5052895;28;20757;-70
2022/08/13 05:52:54;;;;;;;4.00;2.40;;;;;;;;;;5053019;28;20473;-70
2022/08/13 05:55:22;;;;;;;3.80;2.90;;;;;;;;;;5050156;28;20464;-70
2022/08/13 05:57:49;;;;;;;4.97;2.57;;;;;;;;;;5051240;28;20859;-71
2022/08/13 06:05:46;;;;;;;8.97;3.20;;;;;;;;;;5044554;28;20461;-70
2022/08/13 06:08:15;;;;;;;5.80;3.23;;;;;;;;;;5033583;28;20474;-70
2022/08/13 06:10:43;;;;;;;5.60;2.57;;;;;;;;;;5034791;28;20798;-70
2022/08/13 06:13:14;;;;;;;5.40;2.30;;;;;;;;;;5033487;28;20453;-70
2022/08/13 06:15:42;;;;;;;5.63;2.80;;;;;;;;;;5047293;28;20474;-70
2022/08/13 06:18:11;;;;;;;5.90;2.93;;;;;;;;;;5035702;28;20881;-71
2022/08/13 06:20:40;;;;;;;4.47;2.20;;;;;;;;;;5045772;28;20908;-71
2022/08/13 06:23:14;;;;;;;3.37;2.30;;;;;;;;;;5052899;28;20541;-70
2022/08/13 06:25:42;;;;;;;3.70;2.53;;;;;;;;;;5056679;28;20563;-70
2022/08/13 06:28:10;;;;;;;3.93;2.37;;;;;;;;;;5056899;28;20470;-70
2022/08/13 06:30:39;;;;;;;6.43;2.80;;;;;;;;;;5056151;28;20770;-70
2022/08/13 06:33:06;;;;;;;5.80;2.87;;;;;;;;;;5056165;28;20449;-70
2022/08/13 06:35:34;;;;;;;6.47;2.37;;;;;;;;;;5056445;28;20496;-70
2022/08/13 06:38:02;;;;;;;6.83;6.07;;;;;;;;;;5056950;28;20441;-70
2022/08/13 06:40:35;;;;;;;5.17;3.20;;;;;;;;;;5056306;28;20686;-70
2022/08/13 06:43:04;;;;;;;4.00;2.37;;;;;;;;;;5057074;28;20457;-70
2022/08/13 06:45:31;;;;;;;3.60;2.50;;;;;;;;;;5052199;28;20866;-70
2022/08/13 06:48:00;;;;;;;12.80;2.90;;;;;;;;;;5055745;28;20787;-70
2022/08/13 06:50:32;;;;;;;7.10;3.03;;;;;;;;;;5055769;28;20512;-70
2022/08/13 06:52:59;;;;;;;4.67;2.30;;;;;;;;;;5056608;28;20457;-70
2022/08/13 06:55:26;;;;;;;4.10;2.43;;;;;;;;;;5054011;28;20473;-70
2022/08/13 06:57:53;;;;;;;8.67;3.37;;;;;;;;;;5054114;28;20456;-70
2022/08/13 07:00:26;;;;;;;4.13;2.47;;;;;;;;;;5055212;28;20484;-70
2022/08/13 07:02:56;;;;;;;11.27;2.60;;;;;;;;;;5043639;28;20491;-70
2022/08/13 07:05:32;;;;;;;4.13;2.37;;;;;;;;;;5049808;28;20464;-70
2022/08/13 07:07:59;;;;;;;3.30;2.33;;;;;;;;;;5054717;28;20465;-69
2022/08/13 07:10:26;;;;;;;5.30;2.80;;;;;;;;;;5054334;28;20497;-69
2022/08/13 07:12:54;;;;;;;7.20;2.50;;;;;;;;;;5055035;28;20955;-70
2022/08/13 07:15:22;;;;;;;3.80;2.10;;;;;;;;;;5054340;28;20726;-72
2022/08/13 07:17:51;;;;;;;5.57;2.30;;;;;;;;;;5048344;28;20462;-70
2022/08/13 07:20:18;;;;;;;4.03;2.70;;;;;;;;;;5039687;28;20469;-70
2022/08/13 07:22:46;;;;;;;5.00;2.37;;;;;;;;;;5035260;28;20453;-69
2022/08/13 07:25:13;;;;;;;5.67;2.20;;;;;;;;;;5047651;28;20803;-70
2022/08/13 07:27:41;;;;;;;3.17;2.37;;;;;;;;;;5035511;28;20512;-70
2022/08/13 07:30:11;;;;;;;5.07;2.77;;;;;;;;;;5053147;28;20521;-69
2022/08/13 07:32:39;;;;;;;3.60;2.53;;;;;;;;;;5047314;28;20729;-70
2022/08/13 07:35:08;;;;;;;7.37;2.93;;;;;;;;;;5054574;28;20461;-70
2022/08/13 07:37:36;;;;;;;3.53;2.03;;;;;;;;;;5062692;28;20461;-70
2022/08/13 07:40:04;;;;;;;4.63;3.00;;;;;;;;;;5051998;28;20457;-70
2022/08/13 07:42:32;;;;;;;6.67;2.57;;;;;;;;;;5052254;28;20474;-71
2022/08/13 07:44:59;;;;;;;3.53;2.73;;;;;;;;;;5055236;28;20881;-70
2022/08/13 07:47:27;;;;;;;4.00;2.70;;;;;;;;;;5043598;28;20540;-71
2022/08/13 07:49:55;;;;;;;3.50;2.23;;;;;;;;;;5049629;28;20993;-71
2022/08/13 07:52:23;;;;;;;6.17;2.60;;;;;;;;;;5050890;28;20901;-71
2022/08/13 07:54:50;;;;;;;6.30;2.60;;;;;;;;;;5049088;28;20504;-70
2022/08/13 07:57:18;;;;;;;7.57;2.83;;;;;;;;;;5052211;28;21026;-71
2022/08/13 07:59:46;;;;;;;5.60;3.20;;;;;;;;;;5057122;28;20527;-71
2022/08/13 08:02:16;;;;;;;3.50;2.67;;;;;;;;;;5048987;28;20461;-71
2022/08/13 08:04:44;;;;;;;4.90;2.87;;;;;;;;;;5052818;28;20478;-71
2022/08/13 08:07:12;;;;;;;9.43;4.10;;;;;;;;;;5053670;28;20746;-71
2022/08/13 08:09:44;;;;;;;4.23;2.67;;;;;;;;;;5052250;28;20489;-72
2022/08/13 08:14:59;;;;;;;4.30;3.13;;;;;;;;;;5048977;28;20468;-71
2022/08/13 08:17:27;;;;;;;4.67;3.20;;;;;;;;;;5052660;28;20467;-70
2022/08/13 08:19:54;;;;;;;7.30;3.33;;;;;;;;;;5052888;28;20442;-71
2022/08/13 08:22:21;;;;;;;4.83;2.53;;;;;;;;;;5051560;28;20543;-72
2022/08/13 08:24:53;;;;;;;5.07;3.17;;;;;;;;;;5050654;28;20858;-72
2022/08/13 08:27:20;;;;;;;4.73;2.63;;;;;;;;;;5048500;28;20776;-71
2022/08/13 08:29:49;;;;;;;4.93;2.80;;;;;;;;;;5055613;28;20557;-71
2022/08/13 08:32:17;;;;;;;6.97;3.10;;;;;;;;;;5043126;28;20504;-70
2022/08/13 08:34:45;;;;;;;3.40;2.50;;;;;;;;;;5053641;28;20482;-70
2022/08/13 08:42:35;;;;;;;5.83;3.27;;;;;;;;;;5052884;28;20527;-70
2022/08/13 08:42:54;;;;;;;6.70;2.40;;;;;;;;;;5054968;28;20456;-70
2022/08/13 08:45:22;;;;;;;4.67;2.40;;;;;;;;;;5053683;28;20472;-70
2022/08/13 08:47:52;;;;;;;5.43;2.43;;;;;;;;;;5055039;28;20477;-69
2022/08/13 08:50:19;;;;;;;3.57;2.50;;;;;;;;;;5052328;28;20837;-70
2022/08/13 08:55:35;;;;;;;4.93;2.87;;;;;;;;;;5050792;28;20622;-71
2022/08/13 08:58:04;;;;;;;10.40;2.60;;;;;;;;;;5050731;28;20548;-71
2022/08/13 09:00:32;;;;;;;6.73;2.93;;;;;;;;;;5049579;28;20745;-71
2022/08/13 09:02:59;;;;;;;4.63;2.77;;;;;;;;;;5052505;28;20866;-71
2022/08/13 09:05:27;;;;;;;5.00;2.60;;;;;;;;;;5039239;28;20882;-71
2022/08/13 09:07:54;;;;;;;5.63;2.67;;;;;;;;;;5032772;28;20451;-71
2022/08/13 09:10:23;;;;;;;7.30;3.27;;;;;;;;;;5032035;28;20586;-71
2022/08/13 09:12:54;;;;;;;4.20;2.70;;;;;;;;;;5032647;28;20576;-70
2022/08/13 09:15:23;;;;;;;4.40;2.80;;;;;;;;;;5031977;28;20447;-70
2022/08/13 09:17:50;;;;;;;6.43;3.50;;;;;;;;;;5031537;28;20544;-71
2022/08/13 09:20:19;;;;;;;5.30;2.40;;;;;;;;;;5034072;28;21039;-71
2022/08/13 09:22:46;;;;;;;3.73;2.27;;;;;;;;;;5051203;28;20482;-70
2022/08/13 09:25:18;;;;;;;7.03;2.27;;;;;;;;;;5052594;28;20780;-71
2022/08/13 09:27:45;;;;;;;4.53;2.80;;;;;;;;;;5044301;28;20488;-71
2022/08/13 09:30:14;;;;;;;9.10;3.73;;;;;;;;;;5051565;28;20508;-70
2022/08/13 09:32:41;;;;;;;2.90;2.50;;;;;;;;;;5041847;28;20531;-71
2022/08/13 09:35:11;;;;;;;4.03;2.57;;;;;;;;;;5043018;28;20743;-73
2022/08/13 09:37:40;;;;;;;3.63;2.47;;;;;;;;;;5048376;28;20500;-72
2022/08/13 09:40:12;;;;;;;3.10;2.40;;;;;;;;;;5049571;28;20472;-71
2022/08/13 09:42:45;;;;;;;6.20;3.10;;;;;;;;;;5037061;28;21050;-72
2022/08/13 09:45:24;;;;;;;6.80;3.77;;;;;;;;;;5046323;28;20461;-73
2022/08/13 09:47:54;;;;;;;3.10;2.37;;;;;;;;;;5046867;28;20528;-72
2022/08/13 09:50:25;;;;;;;3.77;2.70;;;;;;;;;;5050814;28;20478;-72
2022/08/13 09:52:55;;;;;;;6.27;3.83;;;;;;;;;;5052251;28;20469;-72
2022/08/13 09:55:29;;;;;;;3.97;2.60;;;;;;;;;;5043803;28;20519;-74
2022/08/13 09:57:59;;;;;;;3.20;2.53;;;;;;;;;;5046230;28;20462;-72
2022/08/13 10:00:31;;;;;;;2.97;2.40;;;;;;;;;;5038923;28;20570;-73
2022/08/13 10:02:59;;;;;;;4.67;3.70;;;;;;;;;;5045967;28;20481;-72
2022/08/13 10:05:34;;;;;;;5.83;3.27;;;;;;;;;;5061703;28;20889;-72
2022/08/13 10:08:02;;;;;;;3.53;2.73;;;;;;;;;;5062655;28;20925;-72
2022/08/13 10:10:32;;;;;;;8.87;2.97;;;;;;;;;;5054677;28;20485;-71
2022/08/13 10:13:00;;;;;;;9.13;7.77;;;;;;;;;;5051254;28;20465;-72
2022/08/13 10:15:30;;;;;;;5.33;3.47;;;;;;;;;;5048326;28;20472;-72
2022/08/13 10:17:59;;;;;;;4.50;2.67;;;;;;;;;;5051818;28;20988;-71
2022/08/13 10:20:29;;;;;;;4.00;2.73;;;;;;;;;;5050858;28;20484;-72
2022/08/13 10:22:57;;;;;;;4.63;3.00;;;;;;;;;;5054615;28;20468;-72
2022/08/13 10:25:24;;;;;;;6.80;3.53;;;;;;;;;;5050401;28;21040;-72
2022/08/13 10:27:52;;;;;;;3.67;2.97;;;;;;;;;;5050362;28;20885;-73
2022/08/13 10:30:20;;;;;;;5.40;3.53;;;;;;;;;;5052937;28;20992;-71
2022/08/13 10:32:48;;;;;;;4.37;3.10;;;;;;;;;;5040519;28;20549;-71
2022/08/13 10:35:19;;;;;;;7.07;5.07;;;;;;;;;;5050818;28;20514;-72
2022/08/13 10:37:49;;;;;;;6.60;3.40;;;;;;;;;;5047517;28;20462;-72
2022/08/13 10:40:16;;;;;;;4.60;3.83;;;;;;;;;;5045631;28;20562;-71
2022/08/13 10:42:45;;;;;;;6.60;3.70;;;;;;;;;;5048115;28;20462;-71
2022/08/13 10:45:14;;;;;;;3.80;3.10;;;;;;;;;;5032913;28;20442;-72
2022/08/13 10:47:46;;;;;;;12.87;11.13;;;;;;;;;;5047464;28;20473;-72
2022/08/13 10:50:21;;;;;;;9.40;6.90;;;;;;;;;;5048827;28;20568;-73
2022/08/13 10:52:52;;;;;;;8.73;4.00;;;;;;;;;;5034455;28;20860;-73
2022/08/13 10:55:20;;;;;;;5.90;4.73;;;;;;;;;;5036988;28;20461;-71
2022/08/13 10:57:49;;;;;;;4.30;3.50;;;;;;;;;;5040461;28;20453;-73
2022/08/13 11:00:17;;;;;;;12.00;4.10;;;;;;;;;;5050773;28;20482;-71
2022/08/13 11:02:50;;;;;;;6.07;4.20;;;;;;;;;;5050451;28;20465;-69
2022/08/13 11:05:20;;;;;;;5.03;3.87;;;;;;;;;;5050683;28;20533;-70
2022/08/13 11:07:47;;;;;;;4.73;4.23;;;;;;;;;;5048122;28;20619;-72
2022/08/13 11:10:15;;;;;;;7.93;4.87;;;;;;;;;;5046019;28;20575;-72
2022/08/13 11:12:50;;;;;;;4.70;4.17;;;;;;;;;;5050154;28;20503;-71
2022/08/13 11:15:17;;;;;;;5.80;4.40;;;;;;;;;;5054467;28;20600;-69
2022/08/13 11:17:47;;;;;;;8.30;4.40;;;;;;;;;;5053381;28;20663;-69
2022/08/13 11:20:17;;;;;;;7.43;5.00;;;;;;;;;;5053032;28;20472;-72
2022/08/13 11:22:45;;;;;;;6.30;4.30;;;;;;;;;;5053660;28;21044;-71
2022/08/13 11:25:12;;;;;;;5.93;3.67;;;;;;;;;;5040282;28;20473;-71
2022/08/13 11:27:39;;;;;;;6.77;4.03;;;;;;;;;;5060741;28;20526;-71
2022/08/13 11:30:08;;;;;;;5.63;3.57;;;;;;;;;;5069396;28;20579;-71
2022/08/13 11:32:35;;;;;;;3.73;3.20;;;;;;;;;;5033645;28;20457;-70
2022/08/13 11:35:02;;;;;;;4.30;3.57;;;;;;;;;;5033903;28;20520;-72
2022/08/13 11:37:30;;;;;;;5.40;4.57;;;;;;;;;;5044825;28;20757;-71
2022/08/13 11:39:58;;;;;;;5.30;4.50;;;;;;;;;;5049378;28;20499;-72
2022/08/13 11:42:36;;;;;;;5.80;4.23;;;;;;;;;;5051164;28;20800;-71
2022/08/13 11:45:04;;;;;;;4.20;3.70;;;;;;;;;;5050945;28;20453;-71
2022/08/13 11:47:31;;;;;;;5.23;3.90;;;;;;;;;;5044137;28;20453;-70
2022/08/13 11:49:58;;;;;;;8.17;4.83;;;;;;;;;;5051270;28;20906;-70
2022/08/13 11:52:26;;;;;;;7.33;4.77;;;;;;;;;;5050373;28;20454;-70
2022/08/13 11:54:59;;;;;;;5.53;4.17;;;;;;;;;;5047373;28;20548;-71
2022/08/13 11:57:27;;;;;;;9.27;4.90;;;;;;;;;;5045442;28;20549;-70
2022/08/13 11:59:54;;;;;;;7.70;3.87;;;;;;;;;;5071793;28;20464;-71
2022/08/13 12:02:22;;;;;;;4.97;4.33;;;;;;;;;;5049540;28;20562;-70
2022/08/13 12:04:49;;;;;;;5.30;4.17;;;;;;;;;;5045916;28;20457;-71
2022/08/13 12:07:32;;;;;;;5.43;4.93;;;;;;;;;;5051813;28;20460;-71
2022/08/13 12:10:00;;;;;;;6.67;4.13;;;;;;;;;;5045842;28;20485;-71
2022/08/13 12:12:29;;;;;;;7.10;5.20;;;;;;;;;;5032448;28;20602;-70
2022/08/13 12:14:57;;;;;;;5.17;4.00;;;;;;;;;;5033754;28;20450;-71
2022/08/13 12:17:27;;;;;;;4.77;4.00;;;;;;;;;;5031606;28;20458;-71
2022/08/13 12:19:56;;;;;;;5.60;4.80;;;;;;;;;;5039873;28;20498;-71
2022/08/13 12:22:25;;;;;;;7.00;4.80;;;;;;;;;;5050809;28;20470;-71
2022/08/13 12:24:52;;;;;;;5.43;3.83;;;;;;;;;;5036075;28;20462;-70
2022/08/13 12:27:20;;;;;;;4.60;4.00;;;;;;;;;;5038796;28;20465;-70
2022/08/13 12:29:48;;;;;;;6.13;4.53;;;;;;;;;;5052735;28;20506;-71
2022/08/13 12:32:16;;;;;;;5.87;4.50;;;;;;;;;;5046023;28;20466;-71
2022/08/13 12:34:52;;;;;;;6.23;4.70;;;;;;;;;;5035463;28;20458;-71
2022/08/13 12:37:22;;;;;;;5.43;3.90;;;;;;;;;;5033291;28;20524;-71
2022/08/13 12:39:50;;;;;;;7.23;5.50;;;;;;;;;;5051354;28;20448;-71
2022/08/13 12:42:17;;;;;;;4.87;4.10;;;;;;;;;;5050735;28;20456;-72
2022/08/13 12:44:44;;;;;;;5.90;5.17;;;;;;;;;;5051263;28;20507;-72
2022/08/13 12:47:13;;;;;;;4.30;3.90;;;;;;;;;;5051510;28;20480;-72
2022/08/13 12:49:40;;;;;;;6.63;3.60;;;;;;;;;;5052192;28;20494;-71
2022/08/13 12:52:07;;;;;;;7.47;4.50;;;;;;;;;;5047213;28;20540;-71
2022/08/13 12:54:34;;;;;;;5.37;4.30;;;;;;;;;;5049727;28;20454;-71
2022/08/13 12:57:02;;;;;;;4.30;3.90;;;;;;;;;;5048748;28;20688;-71
2022/08/13 12:59:29;;;;;;;5.90;3.93;;;;;;;;;;5047596;28;20509;-72
2022/08/13 13:01:58;;;;;;;5.30;4.80;;;;;;;;;;5048605;28;20468;-71
2022/08/13 13:04:31;;;;;;;6.20;4.70;;;;;;;;;;5039218;28;20462;-72
2022/08/13 13:07:05;;;;;;;6.60;4.97;;;;;;;;;;5030893;28;20467;-73
2022/08/13 13:09:33;;;;;;;7.40;4.77;;;;;;;;;;5030315;28;20488;-71
2022/08/13 13:12:00;;;;;;;6.47;4.80;;;;;;;;;;5030407;28;20476;-72
2022/08/13 13:14:27;;;;;;;6.40;4.30;;;;;;;;;;5031106;28;20450;-71
2022/08/13 13:16:54;;;;;;;5.23;4.73;;;;;;;;;;5030717;28;20458;-71
2022/08/13 13:19:22;;;;;;;5.80;5.20;;;;;;;;;;5030720;28;20914;-72
2022/08/13 13:21:50;;;;;;;4.73;4.00;;;;;;;;;;5030857;28;20446;-71
2022/08/13 13:24:18;;;;;;;7.43;5.30;;;;;;;;;;5030094;28;20485;-71
2022/08/13 13:26:45;;;;;;;5.83;4.70;;;;;;;;;;5030235;28;20588;-71
2022/08/13 13:29:12;;;;;;;11.03;7.20;;;;;;;;;;5046724;28;20477;-71
2022/08/13 13:31:39;;;;;;;6.13;5.60;;;;;;;;;;5051489;28;20459;-72
2022/08/13 13:34:07;;;;;;;6.30;5.30;;;;;;;;;;5041490;28;20568;-72
2022/08/13 13:36:34;;;;;;;6.30;4.77;;;;;;;;;;5044085;28;20481;-72
2022/08/13 13:39:02;;;;;;;9.60;5.27;;;;;;;;;;5050392;28;20532;-71
2022/08/13 13:41:29;;;;;;;7.60;4.67;;;;;;;;;;5049510;28;20542;-70
2022/08/13 13:43:57;;;;;;;5.50;4.90;;;;;;;;;;5050911;28;20445;-71
2022/08/13 13:46:24;;;;;;;7.10;4.50;;;;;;;;;;5050352;28;20457;-70
2022/08/13 13:48:54;;;;;;;4.90;4.40;;;;;;;;;;5050473;28;20446;-70
2022/08/13 13:51:21;;;;;;;10.57;4.53;;;;;;;;;;5049050;28;21604;-69
2022/08/13 13:53:49;;;;;;;8.57;5.60;;;;;;;;;;5048859;28;20838;-70
2022/08/13 13:56:18;;;;;;;9.83;6.00;;;;;;;;;;5065292;28;20461;-71
2022/08/13 13:58:45;;;;;;;8.77;4.17;;;;;;;;;;5069147;28;20449;-70
2022/08/13 14:01:12;;;;;;;7.67;5.37;;;;;;;;;;5071439;28;20470;-70
2022/08/13 14:03:39;;;;;;;4.90;4.30;;;;;;;;;;5068568;28;20526;-69
2022/08/13 14:06:08;;;;;;;9.77;5.30;;;;;;;;;;5068819;28;20518;-70
2022/08/13 14:08:36;;;;;;;6.40;4.90;;;;;;;;;;5049059;28;20891;-70
2022/08/13 14:11:05;;;;;;;5.83;5.23;;;;;;;;;;5033726;28;20501;-69
2022/08/13 14:13:36;;;;;;;8.53;5.30;;;;;;;;;;5049623;28;20446;-70
2022/08/13 14:16:04;;;;;;;9.13;5.20;;;;;;;;;;5047760;28;21236;-69
2022/08/13 14:18:37;;;;;;;6.67;5.23;;;;;;;;;;5047912;28;20469;-70
2022/08/13 14:21:05;;;;;;;15.07;5.03;;;;;;;;;;5050317;28;20612;-70
2022/08/13 14:23:33;;;;;;;7.37;6.33;;;;;;;;;;5044666;28;20564;-69
2022/08/13 14:26:11;;;;;;;8.50;5.40;;;;;;;;;;5030746;28;20527;-69
2022/08/13 14:28:42;;;;;;;5.83;5.27;;;;;;;;;;5048728;28;20461;-70
2022/08/13 14:31:10;;;;;;;6.23;5.20;;;;;;;;;;5050713;28;20489;-70
2022/08/13 14:33:39;;;;;;;5.80;5.30;;;;;;;;;;5051773;28;20457;-70
2022/08/13 14:36:09;;;;;;;6.53;5.30;;;;;;;;;;5049419;28;20445;-70
2022/08/13 14:38:36;;;;;;;6.63;5.70;;;;;;;;;;5042278;28;20497;-71
2022/08/13 14:41:03;;;;;;;8.27;6.20;;;;;;;;;;5030120;28;20454;-70
2022/08/13 14:43:35;;;;;;;7.13;4.93;;;;;;;;;;5029933;28;20450;-70
2022/08/13 14:46:04;;;;;;;9.57;6.60;;;;;;;;;;5030223;28;20446;-71
2022/08/13 14:48:31;;;;;;;5.67;4.80;;;;;;;;;;5032133;28;20469;-72
2022/08/13 14:51:01;;;;;;;5.90;5.30;;;;;;;;;;5032618;28;21038;-70
2022/08/13 14:53:28;;;;;;;6.83;5.30;;;;;;;;;;5031046;28;20527;-70
2022/08/13 14:55:58;;;;;;;9.23;6.50;;;;;;;;;;5044357;28;20494;-70
2022/08/13 14:58:26;;;;;;;7.77;5.17;;;;;;;;;;5052122;28;20533;-70
2022/08/13 15:00:55;;;;;;;7.27;5.70;;;;;;;;;;5053034;28;20721;-70
2022/08/13 15:03:24;;;;;;;11.40;6.20;;;;;;;;;;5052117;28;20461;-70
2022/08/13 15:05:54;;;;;;;6.10;4.70;;;;;;;;;;5053567;28;20457;-71
2022/08/13 15:08:21;;;;;;;8.30;4.83;;;;;;;;;;5054246;28;20806;-71
2022/08/13 15:10:50;;;;;;;5.83;4.97;;;;;;;;;;5052761;28;20492;-71
2022/08/13 15:13:19;;;;;;;6.63;6.00;;;;;;;;;;5049926;28;20749;-72
2022/08/13 15:15:46;;;;;;;6.60;4.90;;;;;;;;;;5049863;28;20534;-71
2022/08/13 15:18:15;;;;;;;5.63;4.33;;;;;;;;;;5050703;28;20729;-71